Terminal Aerodrome Forecast
Issued by NWS

Home | Current Version | Previous Version | Text Only | Print | Product List | Glossary On
Versions: 1 2 3 4 5 6 7 8 9 10 11 12 13 14 15 16 17 18 19 20 21 22 23 24 25 26 27 28 29 30 31 32 33 34 35 36 37 38 39 40 41 42 43 44 45 46 47 48 49 50
000
FTUS45 KBOU 251928 AAA
TAFBJC
TAF AMD
KBJC 251928Z 2519/2618 03011G16KT P6SM VCSH SCT040 BKN070 BKN120
      TEMPO 2519/2523 5SM SHRA BKN030 OVC050
     FM252300 04015G23KT 6SM -SHRA BKN025 OVC060
      TEMPO 2602/2603 3SM -RASN BKN015 OVC030
     FM260300 02013KT P6SM SCT030 BKN150
     FM261100 VRB06KT P6SM VCFG FEW001 SCT200
     FM261600 09009KT P6SM SCT070=

USA.gov is the U.S. government's official web portal to all federal, state and local government web resources and services.